sensor_id;sensor_type;location;lat;lon;timestamp;P1;durP1;ratioP1;P2;durP2;ratioP2
18224;SDS011;9237;48.590;8.854;2023-05-23T00:02:19;0.70;;;0.70;;
18224;SDS011;9237;48.590;8.854;2023-05-23T00:04:46;0.70;;;0.70;;
18224;SDS011;9237;48.590;8.854;2023-05-23T00:07:13;0.70;;;0.70;;
18224;SDS011;9237;48.590;8.854;2023-05-23T00:09:41;0.70;;;0.70;;
18224;SDS011;9237;48.590;8.854;2023-05-23T00:12:07;0.70;;;0.70;;
18224;SDS011;9237;48.590;8.854;2023-05-23T00:14:35;0.70;;;0.70;;
18224;SDS011;9237;48.590;8.854;2023-05-23T00:17:04;0.70;;;0.70;;
18224;SDS011;9237;48.590;8.854;2023-05-23T00:19:32;0.70;;;0.70;;
18224;SDS011;9237;48.590;8.854;2023-05-23T00:22:00;0.70;;;0.70;;
18224;SDS011;9237;48.590;8.854;2023-05-23T00:24:27;0.70;;;0.70;;
18224;SDS011;9237;48.590;8.854;2023-05-23T00:26:54;0.70;;;0.70;;
18224;SDS011;9237;48.590;8.854;2023-05-23T00:29:22;0.70;;;0.70;;
18224;SDS011;9237;48.590;8.854;2023-05-23T00:31:51;0.70;;;0.70;;
18224;SDS011;9237;48.590;8.854;2023-05-23T00:34:17;0.70;;;0.70;;
18224;SDS011;9237;48.590;8.854;2023-05-23T00:36:44;0.70;;;0.70;;
18224;SDS011;9237;48.590;8.854;2023-05-23T00:39:14;0.70;;;0.70;;
18224;SDS011;9237;48.590;8.854;2023-05-23T00:41:44;0.70;;;0.70;;
18224;SDS011;9237;48.590;8.854;2023-05-23T00:44:11;0.70;;;0.70;;
18224;SDS011;9237;48.590;8.854;2023-05-23T00:46:38;0.70;;;0.70;;
18224;SDS011;9237;48.590;8.854;2023-05-23T00:49:07;0.70;;;0.70;;
18224;SDS011;9237;48.590;8.854;2023-05-23T00:51:35;0.70;;;0.70;;
18224;SDS011;9237;48.590;8.854;2023-05-23T00:54:02;0.70;;;0.70;;
18224;SDS011;9237;48.590;8.854;2023-05-23T00:56:30;0.70;;;0.70;;
18224;SDS011;9237;48.590;8.854;2023-05-23T00:58:57;0.70;;;0.70;;
18224;SDS011;9237;48.590;8.854;2023-05-23T01:01:25;0.70;;;0.70;;
18224;SDS011;9237;48.590;8.854;2023-05-23T01:03:52;0.70;;;0.70;;
18224;SDS011;9237;48.590;8.854;2023-05-23T01:06:20;0.70;;;0.70;;
18224;SDS011;9237;48.590;8.854;2023-05-23T01:08:47;0.70;;;0.70;;
18224;SDS011;9237;48.590;8.854;2023-05-23T01:11:16;0.70;;;0.70;;
18224;SDS011;9237;48.590;8.854;2023-05-23T01:13:52;0.70;;;0.70;;
18224;SDS011;9237;48.590;8.854;2023-05-23T01:16:27;0.80;;;0.80;;
18224;SDS011;9237;48.590;8.854;2023-05-23T01:19:03;0.70;;;0.70;;
18224;SDS011;9237;48.590;8.854;2023-05-23T01:21:42;0.70;;;0.70;;
18224;SDS011;9237;48.590;8.854;2023-05-23T01:24:25;0.70;;;0.70;;
18224;SDS011;9237;48.590;8.854;2023-05-23T01:27:04;0.70;;;0.70;;
18224;SDS011;9237;48.590;8.854;2023-05-23T01:29:41;0.70;;;0.70;;
18224;SDS011;9237;48.590;8.854;2023-05-23T01:32:10;0.70;;;0.70;;
18224;SDS011;9237;48.590;8.854;2023-05-23T01:34:38;0.70;;;0.70;;
18224;SDS011;9237;48.590;8.854;2023-05-23T01:37:07;0.70;;;0.70;;
18224;SDS011;9237;48.590;8.854;2023-05-23T01:39:34;0.70;;;0.70;;
18224;SDS011;9237;48.590;8.854;2023-05-23T01:42:01;0.70;;;0.70;;
18224;SDS011;9237;48.590;8.854;2023-05-23T01:44:28;0.80;;;0.80;;
18224;SDS011;9237;48.590;8.854;2023-05-23T01:46:56;0.70;;;0.70;;
18224;SDS011;9237;48.590;8.854;2023-05-23T01:49:23;0.70;;;0.70;;
18224;SDS011;9237;48.590;8.854;2023-05-23T01:51:51;0.70;;;0.70;;
18224;SDS011;9237;48.590;8.854;2023-05-23T01:54:19;0.70;;;0.70;;
18224;SDS011;9237;48.590;8.854;2023-05-23T01:56:46;0.70;;;0.70;;
18224;SDS011;9237;48.590;8.854;2023-05-23T01:59:13;0.70;;;0.70;;
18224;SDS011;9237;48.590;8.854;2023-05-23T02:01:40;0.70;;;0.70;;
18224;SDS011;9237;48.590;8.854;2023-05-23T02:04:09;0.70;;;0.70;;
18224;SDS011;9237;48.590;8.854;2023-05-23T02:06:36;0.70;;;0.70;;
18224;SDS011;9237;48.590;8.854;2023-05-23T02:09:02;0.70;;;0.70;;
18224;SDS011;9237;48.590;8.854;2023-05-23T02:11:29;0.60;;;0.60;;
18224;SDS011;9237;48.590;8.854;2023-05-23T02:13:56;0.70;;;0.70;;
18224;SDS011;9237;48.590;8.854;2023-05-23T02:16:23;0.60;;;0.60;;
18224;SDS011;9237;48.590;8.854;2023-05-23T02:18:50;0.70;;;0.70;;
18224;SDS011;9237;48.590;8.854;2023-05-23T02:21:21;0.60;;;0.60;;
18224;SDS011;9237;48.590;8.854;2023-05-23T02:23:48;0.60;;;0.60;;
18224;SDS011;9237;48.590;8.854;2023-05-23T02:26:15;0.70;;;0.70;;
18224;SDS011;9237;48.590;8.854;2023-05-23T02:28:41;0.63;;;0.63;;
18224;SDS011;9237;48.590;8.854;2023-05-23T02:31:08;0.70;;;0.70;;
18224;SDS011;9237;48.590;8.854;2023-05-23T02:33:35;0.70;;;0.70;;
18224;SDS011;9237;48.590;8.854;2023-05-23T02:36:02;0.70;;;0.70;;
18224;SDS011;9237;48.590;8.854;2023-05-23T02:38:31;0.70;;;0.70;;
18224;SDS011;9237;48.590;8.854;2023-05-23T02:40:58;0.60;;;0.60;;
18224;SDS011;9237;48.590;8.854;2023-05-23T02:43:25;0.70;;;0.70;;
18224;SDS011;9237;48.590;8.854;2023-05-23T02:45:51;0.70;;;0.70;;
18224;SDS011;9237;48.590;8.854;2023-05-23T02:48:19;0.70;;;0.70;;
18224;SDS011;9237;48.590;8.854;2023-05-23T02:50:46;0.70;;;0.70;;
18224;SDS011;9237;48.590;8.854;2023-05-23T02:53:13;0.70;;;0.70;;
18224;SDS011;9237;48.590;8.854;2023-05-23T02:55:41;0.70;;;0.70;;
18224;SDS011;9237;48.590;8.854;2023-05-23T02:58:08;0.70;;;0.70;;
18224;SDS011;9237;48.590;8.854;2023-05-23T03:00:35;0.70;;;0.70;;
18224;SDS011;9237;48.590;8.854;2023-05-23T03:03:01;0.70;;;0.70;;
18224;SDS011;9237;48.590;8.854;2023-05-23T03:05:28;0.70;;;0.70;;
18224;SDS011;9237;48.590;8.854;2023-05-23T03:07:55;0.70;;;0.70;;
18224;SDS011;9237;48.590;8.854;2023-05-23T03:10:22;0.70;;;0.70;;
18224;SDS011;9237;48.590;8.854;2023-05-23T03:12:50;0.70;;;0.70;;
18224;SDS011;9237;48.590;8.854;2023-05-23T03:15:17;0.70;;;0.70;;
18224;SDS011;9237;48.590;8.854;2023-05-23T03:17:44;0.60;;;0.60;;
18224;SDS011;9237;48.590;8.854;2023-05-23T03:20:11;0.70;;;0.70;;
18224;SDS011;9237;48.590;8.854;2023-05-23T03:22:39;0.70;;;0.70;;
18224;SDS011;9237;48.590;8.854;2023-05-23T03:25:07;0.70;;;0.70;;
18224;SDS011;9237;48.590;8.854;2023-05-23T03:27:34;0.70;;;0.70;;
18224;SDS011;9237;48.590;8.854;2023-05-23T03:30:03;0.80;;;0.80;;
18224;SDS011;9237;48.590;8.854;2023-05-23T03:32:30;0.70;;;0.70;;
18224;SDS011;9237;48.590;8.854;2023-05-23T03:34:57;0.70;;;0.70;;
18224;SDS011;9237;48.590;8.854;2023-05-23T03:37:24;0.70;;;0.70;;
18224;SDS011;9237;48.590;8.854;2023-05-23T03:39:50;0.70;;;0.70;;
18224;SDS011;9237;48.590;8.854;2023-05-23T03:42:17;0.70;;;0.70;;
18224;SDS011;9237;48.590;8.854;2023-05-23T03:44:44;0.70;;;0.70;;
18224;SDS011;9237;48.590;8.854;2023-05-23T03:47:12;0.60;;;0.60;;
18224;SDS011;9237;48.590;8.854;2023-05-23T03:49:39;0.70;;;0.70;;
18224;SDS011;9237;48.590;8.854;2023-05-23T03:52:06;0.60;;;0.60;;
18224;SDS011;9237;48.590;8.854;2023-05-23T03:54:32;0.50;;;0.50;;
18224;SDS011;9237;48.590;8.854;2023-05-23T03:56:59;0.67;;;0.67;;
18224;SDS011;9237;48.590;8.854;2023-05-23T03:59:26;0.60;;;0.60;;
18224;SDS011;9237;48.590;8.854;2023-05-23T04:01:53;0.60;;;0.60;;
18224;SDS011;9237;48.590;8.854;2023-05-23T04:04:24;0.70;;;0.70;;
18224;SDS011;9237;48.590;8.854;2023-05-23T04:06:50;0.67;;;0.67;;
18224;SDS011;9237;48.590;8.854;2023-05-23T04:09:18;0.70;;;0.70;;
18224;SDS011;9237;48.590;8.854;2023-05-23T04:11:45;0.70;;;0.70;;
18224;SDS011;9237;48.590;8.854;2023-05-23T04:14:12;0.60;;;0.60;;
18224;SDS011;9237;48.590;8.854;2023-05-23T04:16:39;0.60;;;0.60;;
18224;SDS011;9237;48.590;8.854;2023-05-23T04:19:06;0.60;;;0.60;;
18224;SDS011;9237;48.590;8.854;2023-05-23T04:21:34;0.70;;;0.70;;
18224;SDS011;9237;48.590;8.854;2023-05-23T04:24:02;0.63;;;0.63;;
18224;SDS011;9237;48.590;8.854;2023-05-23T04:26:29;0.63;;;0.63;;
18224;SDS011;9237;48.590;8.854;2023-05-23T04:28:55;0.70;;;0.70;;
18224;SDS011;9237;48.590;8.854;2023-05-23T04:31:23;0.70;;;0.70;;
18224;SDS011;9237;48.590;8.854;2023-05-23T04:33:50;0.70;;;0.70;;
18224;SDS011;9237;48.590;8.854;2023-05-23T04:36:17;0.60;;;0.60;;
18224;SDS011;9237;48.590;8.854;2023-05-23T04:38:45;0.60;;;0.60;;
18224;SDS011;9237;48.590;8.854;2023-05-23T04:41:12;0.70;;;0.70;;
18224;SDS011;9237;48.590;8.854;2023-05-23T04:43:40;0.70;;;0.70;;
18224;SDS011;9237;48.590;8.854;2023-05-23T04:46:07;0.70;;;0.70;;
18224;SDS011;9237;48.590;8.854;2023-05-23T04:48:34;0.70;;;0.70;;
18224;SDS011;9237;48.590;8.854;2023-05-23T04:51:02;0.60;;;0.60;;
18224;SDS011;9237;48.590;8.854;2023-05-23T04:53:31;0.60;;;0.60;;
18224;SDS011;9237;48.590;8.854;2023-05-23T04:56:00;0.60;;;0.60;;
18224;SDS011;9237;48.590;8.854;2023-05-23T04:58:27;0.60;;;0.60;;
18224;SDS011;9237;48.590;8.854;2023-05-23T05:00:53;0.70;;;0.70;;
18224;SDS011;9237;48.590;8.854;2023-05-23T05:03:20;0.70;;;0.70;;
18224;SDS011;9237;48.590;8.854;2023-05-23T05:05:49;0.70;;;0.70;;
18224;SDS011;9237;48.590;8.854;2023-05-23T05:08:15;0.60;;;0.60;;
18224;SDS011;9237;48.590;8.854;2023-05-23T05:10:43;0.60;;;0.60;;
18224;SDS011;9237;48.590;8.854;2023-05-23T05:13:12;0.70;;;0.70;;
18224;SDS011;9237;48.590;8.854;2023-05-23T05:15:38;0.60;;;0.60;;
18224;SDS011;9237;48.590;8.854;2023-05-23T05:18:06;0.60;;;0.60;;
18224;SDS011;9237;48.590;8.854;2023-05-23T05:20:33;0.70;;;0.70;;
18224;SDS011;9237;48.590;8.854;2023-05-23T05:23:00;0.70;;;0.70;;
18224;SDS011;9237;48.590;8.854;2023-05-23T05:25:26;0.70;;;0.70;;
18224;SDS011;9237;48.590;8.854;2023-05-23T05:27:56;0.70;;;0.70;;
18224;SDS011;9237;48.590;8.854;2023-05-23T05:30:24;0.70;;;0.70;;
18224;SDS011;9237;48.590;8.854;2023-05-23T05:32:51;0.60;;;0.60;;
18224;SDS011;9237;48.590;8.854;2023-05-23T05:35:18;0.60;;;0.60;;
18224;SDS011;9237;48.590;8.854;2023-05-23T05:37:45;0.60;;;0.60;;
18224;SDS011;9237;48.590;8.854;2023-05-23T05:40:11;0.60;;;0.60;;
18224;SDS011;9237;48.590;8.854;2023-05-23T05:42:38;0.60;;;0.60;;
18224;SDS011;9237;48.590;8.854;2023-05-23T05:45:05;0.60;;;0.60;;
18224;SDS011;9237;48.590;8.854;2023-05-23T05:47:34;0.70;;;0.70;;
18224;SDS011;9237;48.590;8.854;2023-05-23T05:50:03;0.60;;;0.60;;
18224;SDS011;9237;48.590;8.854;2023-05-23T05:52:30;0.60;;;0.60;;
18224;SDS011;9237;48.590;8.854;2023-05-23T05:54:58;0.60;;;0.60;;
18224;SDS011;9237;48.590;8.854;2023-05-23T05:57:25;0.60;;;0.60;;
18224;SDS011;9237;48.590;8.854;2023-05-23T05:59:52;0.70;;;0.70;;
18224;SDS011;9237;48.590;8.854;2023-05-23T06:02:18;0.60;;;0.60;;
18224;SDS011;9237;48.590;8.854;2023-05-23T06:04:46;0.60;;;0.60;;
18224;SDS011;9237;48.590;8.854;2023-05-23T06:07:13;0.60;;;0.60;;
18224;SDS011;9237;48.590;8.854;2023-05-23T06:09:40;0.60;;;0.60;;
18224;SDS011;9237;48.590;8.854;2023-05-23T06:12:07;0.60;;;0.60;;
18224;SDS011;9237;48.590;8.854;2023-05-23T06:14:34;0.60;;;0.60;;
18224;SDS011;9237;48.590;8.854;2023-05-23T06:17:01;0.60;;;0.60;;
18224;SDS011;9237;48.590;8.854;2023-05-23T06:19:28;0.63;;;0.63;;
18224;SDS011;9237;48.590;8.854;2023-05-23T06:21:56;0.60;;;0.60;;
18224;SDS011;9237;48.590;8.854;2023-05-23T06:24:23;0.70;;;0.70;;
18224;SDS011;9237;48.590;8.854;2023-05-23T06:26:50;0.60;;;0.60;;
18224;SDS011;9237;48.590;8.854;2023-05-23T06:29:17;0.67;;;0.67;;
18224;SDS011;9237;48.590;8.854;2023-05-23T06:31:44;0.70;;;0.70;;
18224;SDS011;9237;48.590;8.854;2023-05-23T06:34:11;0.60;;;0.60;;
18224;SDS011;9237;48.590;8.854;2023-05-23T06:36:38;0.70;;;0.70;;
18224;SDS011;9237;48.590;8.854;2023-05-23T06:39:08;0.70;;;0.70;;
18224;SDS011;9237;48.590;8.854;2023-05-23T06:41:35;0.70;;;0.70;;
18224;SDS011;9237;48.590;8.854;2023-05-23T06:44:02;0.60;;;0.60;;
18224;SDS011;9237;48.590;8.854;2023-05-23T06:46:28;0.70;;;0.70;;
18224;SDS011;9237;48.590;8.854;2023-05-23T06:48:56;0.70;;;0.70;;
18224;SDS011;9237;48.590;8.854;2023-05-23T06:51:23;0.60;;;0.60;;
18224;SDS011;9237;48.590;8.854;2023-05-23T06:53:50;0.60;;;0.60;;
18224;SDS011;9237;48.590;8.854;2023-05-23T06:56:18;0.60;;;0.60;;
18224;SDS011;9237;48.590;8.854;2023-05-23T06:58:46;0.70;;;0.70;;
18224;SDS011;9237;48.590;8.854;2023-05-23T07:01:13;0.60;;;0.60;;
18224;SDS011;9237;48.590;8.854;2023-05-23T07:03:40;0.67;;;0.67;;
18224;SDS011;9237;48.590;8.854;2023-05-23T07:06:09;0.60;;;0.60;;
18224;SDS011;9237;48.590;8.854;2023-05-23T07:08:36;0.60;;;0.60;;
18224;SDS011;9237;48.590;8.854;2023-05-23T07:11:03;0.60;;;0.60;;
18224;SDS011;9237;48.590;8.854;2023-05-23T07:13:33;0.60;;;0.60;;
18224;SDS011;9237;48.590;8.854;2023-05-23T07:15:59;0.60;;;0.60;;
18224;SDS011;9237;48.590;8.854;2023-05-23T07:18:26;0.60;;;0.60;;
18224;SDS011;9237;48.590;8.854;2023-05-23T07:20:53;0.60;;;0.60;;
18224;SDS011;9237;48.590;8.854;2023-05-23T07:23:21;0.60;;;0.60;;
18224;SDS011;9237;48.590;8.854;2023-05-23T07:25:49;0.60;;;0.60;;
18224;SDS011;9237;48.590;8.854;2023-05-23T07:28:16;0.60;;;0.60;;
18224;SDS011;9237;48.590;8.854;2023-05-23T07:30:44;0.60;;;0.60;;
18224;SDS011;9237;48.590;8.854;2023-05-23T07:33:11;0.60;;;0.60;;
18224;SDS011;9237;48.590;8.854;2023-05-23T07:35:38;0.60;;;0.60;;
18224;SDS011;9237;48.590;8.854;2023-05-23T07:38:05;0.60;;;0.60;;
18224;SDS011;9237;48.590;8.854;2023-05-23T07:40:32;0.60;;;0.60;;
18224;SDS011;9237;48.590;8.854;2023-05-23T07:42:59;0.60;;;0.60;;
18224;SDS011;9237;48.590;8.854;2023-05-23T07:45:26;0.60;;;0.60;;
18224;SDS011;9237;48.590;8.854;2023-05-23T07:47:54;0.60;;;0.60;;
18224;SDS011;9237;48.590;8.854;2023-05-23T07:50:21;0.67;;;0.67;;
18224;SDS011;9237;48.590;8.854;2023-05-23T07:52:48;0.60;;;0.60;;
18224;SDS011;9237;48.590;8.854;2023-05-23T07:55:16;0.60;;;0.60;;
18224;SDS011;9237;48.590;8.854;2023-05-23T07:57:42;0.60;;;0.60;;
18224;SDS011;9237;48.590;8.854;2023-05-23T08:00:10;0.60;;;0.60;;
18224;SDS011;9237;48.590;8.854;2023-05-23T08:02:37;0.70;;;0.70;;
18224;SDS011;9237;48.590;8.854;2023-05-23T08:05:06;0.63;;;0.63;;
18224;SDS011;9237;48.590;8.854;2023-05-23T08:07:33;0.60;;;0.60;;
18224;SDS011;9237;48.590;8.854;2023-05-23T08:10:00;0.60;;;0.60;;
18224;SDS011;9237;48.590;8.854;2023-05-23T08:12:27;0.60;;;0.60;;
18224;SDS011;9237;48.590;8.854;2023-05-23T08:14:54;0.60;;;0.60;;
18224;SDS011;9237;48.590;8.854;2023-05-23T08:17:20;0.60;;;0.60;;
18224;SDS011;9237;48.590;8.854;2023-05-23T08:19:47;0.60;;;0.60;;
18224;SDS011;9237;48.590;8.854;2023-05-23T08:22:15;0.60;;;0.60;;
18224;SDS011;9237;48.590;8.854;2023-05-23T08:24:42;0.60;;;0.60;;
18224;SDS011;9237;48.590;8.854;2023-05-23T08:27:09;0.67;;;0.67;;
18224;SDS011;9237;48.590;8.854;2023-05-23T08:29:36;0.60;;;0.60;;
18224;SDS011;9237;48.590;8.854;2023-05-23T08:32:03;0.60;;;0.60;;
18224;SDS011;9237;48.590;8.854;2023-05-23T08:34:30;0.70;;;0.70;;
18224;SDS011;9237;48.590;8.854;2023-05-23T08:36:57;0.60;;;0.60;;
18224;SDS011;9237;48.590;8.854;2023-05-23T08:39:25;0.70;;;0.70;;
18224;SDS011;9237;48.590;8.854;2023-05-23T08:41:51;0.60;;;0.60;;
18224;SDS011;9237;48.590;8.854;2023-05-23T08:44:18;0.60;;;0.60;;
18224;SDS011;9237;48.590;8.854;2023-05-23T08:46:45;0.60;;;0.60;;
18224;SDS011;9237;48.590;8.854;2023-05-23T08:49:13;0.60;;;0.60;;
18224;SDS011;9237;48.590;8.854;2023-05-23T08:51:43;0.60;;;0.60;;
18224;SDS011;9237;48.590;8.854;2023-05-23T08:54:10;0.60;;;0.60;;
18224;SDS011;9237;48.590;8.854;2023-05-23T08:56:39;0.67;;;0.67;;
18224;SDS011;9237;48.590;8.854;2023-05-23T08:59:07;0.60;;;0.60;;
18224;SDS011;9237;48.590;8.854;2023-05-23T09:01:35;0.60;;;0.60;;
18224;SDS011;9237;48.590;8.854;2023-05-23T09:04:03;0.60;;;0.60;;
18224;SDS011;9237;48.590;8.854;2023-05-23T09:06:31;0.60;;;0.60;;
18224;SDS011;9237;48.590;8.854;2023-05-23T09:08:58;0.60;;;0.60;;
18224;SDS011;9237;48.590;8.854;2023-05-23T09:11:25;0.60;;;0.60;;
18224;SDS011;9237;48.590;8.854;2023-05-23T09:13:53;0.63;;;0.63;;
18224;SDS011;9237;48.590;8.854;2023-05-23T09:16:20;0.60;;;0.60;;
18224;SDS011;9237;48.590;8.854;2023-05-23T09:18:47;0.60;;;0.60;;
18224;SDS011;9237;48.590;8.854;2023-05-23T09:21:14;0.60;;;0.60;;
18224;SDS011;9237;48.590;8.854;2023-05-23T09:23:40;0.60;;;0.60;;
18224;SDS011;9237;48.590;8.854;2023-05-23T09:26:08;0.60;;;0.60;;
18224;SDS011;9237;48.590;8.854;2023-05-23T09:28:37;0.60;;;0.60;;
18224;SDS011;9237;48.590;8.854;2023-05-23T09:31:07;0.60;;;0.60;;
18224;SDS011;9237;48.590;8.854;2023-05-23T09:33:38;0.60;;;0.60;;
18224;SDS011;9237;48.590;8.854;2023-05-23T09:36:08;0.60;;;0.60;;
18224;SDS011;9237;48.590;8.854;2023-05-23T09:38:36;0.60;;;0.60;;
18224;SDS011;9237;48.590;8.854;2023-05-23T09:41:04;0.60;;;0.60;;
18224;SDS011;9237;48.590;8.854;2023-05-23T09:43:48;0.60;;;0.60;;
18224;SDS011;9237;48.590;8.854;2023-05-23T09:46:17;0.60;;;0.60;;
18224;SDS011;9237;48.590;8.854;2023-05-23T09:48:45;0.50;;;0.50;;
18224;SDS011;9237;48.590;8.854;2023-05-23T09:51:12;0.60;;;0.60;;
18224;SDS011;9237;48.590;8.854;2023-05-23T09:53:39;0.60;;;0.60;;
18224;SDS011;9237;48.590;8.854;2023-05-23T09:56:06;0.60;;;0.60;;
18224;SDS011;9237;48.590;8.854;2023-05-23T09:58:36;0.60;;;0.60;;
18224;SDS011;9237;48.590;8.854;2023-05-23T10:01:04;0.60;;;0.60;;
18224;SDS011;9237;48.590;8.854;2023-05-23T10:03:38;0.50;;;0.50;;
18224;SDS011;9237;48.590;8.854;2023-05-23T10:06:11;0.60;;;0.60;;
18224;SDS011;9237;48.590;8.854;2023-05-23T10:08:49;0.60;;;0.60;;
18224;SDS011;9237;48.590;8.854;2023-05-23T10:14:34;0.60;;;0.60;;
18224;SDS011;9237;48.590;8.854;2023-05-23T10:17:10;0.53;;;0.53;;
18224;SDS011;9237;48.590;8.854;2023-05-23T10:19:46;0.60;;;0.60;;
18224;SDS011;9237;48.590;8.854;2023-05-23T10:22:17;0.60;;;0.60;;
18224;SDS011;9237;48.590;8.854;2023-05-23T10:24:45;0.60;;;0.60;;
18224;SDS011;9237;48.590;8.854;2023-05-23T10:27:13;0.60;;;0.60;;
18224;SDS011;9237;48.590;8.854;2023-05-23T10:29:40;0.60;;;0.60;;
18224;SDS011;9237;48.590;8.854;2023-05-23T10:32:08;0.50;;;0.50;;
18224;SDS011;9237;48.590;8.854;2023-05-23T10:34:36;0.60;;;0.60;;
18224;SDS011;9237;48.590;8.854;2023-05-23T10:37:11;0.50;;;0.50;;
18224;SDS011;9237;48.590;8.854;2023-05-23T10:39:50;0.60;;;0.60;;
18224;SDS011;9237;48.590;8.854;2023-05-23T10:42:25;0.60;;;0.60;;
18224;SDS011;9237;48.590;8.854;2023-05-23T10:45:14;0.60;;;0.60;;
18224;SDS011;9237;48.590;8.854;2023-05-23T10:47:42;0.60;;;0.60;;
18224;SDS011;9237;48.590;8.854;2023-05-23T10:50:13;0.60;;;0.60;;
18224;SDS011;9237;48.590;8.854;2023-05-23T10:52:42;0.50;;;0.50;;
18224;SDS011;9237;48.590;8.854;2023-05-23T10:55:12;0.50;;;0.50;;
18224;SDS011;9237;48.590;8.854;2023-05-23T10:57:41;0.50;;;0.50;;
18224;SDS011;9237;48.590;8.854;2023-05-23T11:00:12;0.50;;;0.50;;
18224;SDS011;9237;48.590;8.854;2023-05-23T11:02:45;0.50;;;0.50;;
18224;SDS011;9237;48.590;8.854;2023-05-23T11:05:18;0.50;;;0.50;;
18224;SDS011;9237;48.590;8.854;2023-05-23T11:07:48;0.60;;;0.60;;
18224;SDS011;9237;48.590;8.854;2023-05-23T11:10:43;0.60;;;0.60;;
18224;SDS011;9237;48.590;8.854;2023-05-23T11:13:17;0.50;;;0.50;;
18224;SDS011;9237;48.590;8.854;2023-05-23T11:15:45;0.50;;;0.50;;
18224;SDS011;9237;48.590;8.854;2023-05-23T11:18:18;0.60;;;0.60;;
18224;SDS011;9237;48.590;8.854;2023-05-23T11:20:46;0.50;;;0.50;;
18224;SDS011;9237;48.590;8.854;2023-05-23T11:23:18;0.50;;;0.50;;
18224;SDS011;9237;48.590;8.854;2023-05-23T11:25:47;0.50;;;0.50;;
18224;SDS011;9237;48.590;8.854;2023-05-23T11:28:15;0.50;;;0.50;;
18224;SDS011;9237;48.590;8.854;2023-05-23T11:30:42;0.50;;;0.50;;
18224;SDS011;9237;48.590;8.854;2023-05-23T11:33:12;0.50;;;0.50;;
18224;SDS011;9237;48.590;8.854;2023-05-23T11:35:41;0.40;;;0.40;;
18224;SDS011;9237;48.590;8.854;2023-05-23T11:38:08;0.40;;;0.40;;
18224;SDS011;9237;48.590;8.854;2023-05-23T11:40:37;0.40;;;0.40;;
18224;SDS011;9237;48.590;8.854;2023-05-23T11:43:06;0.40;;;0.40;;
18224;SDS011;9237;48.590;8.854;2023-05-23T11:45:34;0.40;;;0.40;;
18224;SDS011;9237;48.590;8.854;2023-05-23T11:48:05;0.40;;;0.40;;
18224;SDS011;9237;48.590;8.854;2023-05-23T11:50:32;0.50;;;0.50;;
18224;SDS011;9237;48.590;8.854;2023-05-23T11:53:00;0.50;;;0.50;;
18224;SDS011;9237;48.590;8.854;2023-05-23T11:55:27;0.50;;;0.50;;
18224;SDS011;9237;48.590;8.854;2023-05-23T11:57:56;0.50;;;0.50;;
18224;SDS011;9237;48.590;8.854;2023-05-23T12:00:23;0.50;;;0.50;;
18224;SDS011;9237;48.590;8.854;2023-05-23T12:02:49;0.50;;;0.50;;
18224;SDS011;9237;48.590;8.854;2023-05-23T12:05:16;0.40;;;0.40;;
18224;SDS011;9237;48.590;8.854;2023-05-23T12:07:43;0.60;;;0.60;;
18224;SDS011;9237;48.590;8.854;2023-05-23T12:10:12;0.50;;;0.50;;
18224;SDS011;9237;48.590;8.854;2023-05-23T12:12:40;0.40;;;0.40;;
18224;SDS011;9237;48.590;8.854;2023-05-23T12:15:09;0.50;;;0.50;;
18224;SDS011;9237;48.590;8.854;2023-05-23T12:17:37;0.50;;;0.50;;
18224;SDS011;9237;48.590;8.854;2023-05-23T12:20:04;0.50;;;0.50;;
18224;SDS011;9237;48.590;8.854;2023-05-23T12:22:32;0.50;;;0.50;;
18224;SDS011;9237;48.590;8.854;2023-05-23T12:24:59;0.40;;;0.40;;
18224;SDS011;9237;48.590;8.854;2023-05-23T12:27:26;0.50;;;0.50;;
18224;SDS011;9237;48.590;8.854;2023-05-23T12:30:04;0.50;;;0.50;;
18224;SDS011;9237;48.590;8.854;2023-05-23T12:32:34;0.50;;;0.50;;
18224;SDS011;9237;48.590;8.854;2023-05-23T12:35:04;0.50;;;0.50;;
18224;SDS011;9237;48.590;8.854;2023-05-23T12:37:32;0.50;;;0.50;;
18224;SDS011;9237;48.590;8.854;2023-05-23T12:40:07;0.50;;;0.50;;
18224;SDS011;9237;48.590;8.854;2023-05-23T12:42:42;0.50;;;0.50;;
18224;SDS011;9237;48.590;8.854;2023-05-23T12:45:14;0.43;;;0.43;;
18224;SDS011;9237;48.590;8.854;2023-05-23T12:47:43;0.50;;;0.50;;
18224;SDS011;9237;48.590;8.854;2023-05-23T12:50:10;0.43;;;0.43;;
18224;SDS011;9237;48.590;8.854;2023-05-23T12:52:37;0.47;;;0.47;;
18224;SDS011;9237;48.590;8.854;2023-05-23T12:55:04;0.40;;;0.40;;
18224;SDS011;9237;48.590;8.854;2023-05-23T12:57:32;0.40;;;0.40;;
18224;SDS011;9237;48.590;8.854;2023-05-23T13:00:00;0.40;;;0.40;;
18224;SDS011;9237;48.590;8.854;2023-05-23T13:02:27;0.50;;;0.50;;
18224;SDS011;9237;48.590;8.854;2023-05-23T13:04:55;0.40;;;0.40;;
18224;SDS011;9237;48.590;8.854;2023-05-23T13:07:22;0.40;;;0.40;;
18224;SDS011;9237;48.590;8.854;2023-05-23T13:09:49;0.40;;;0.40;;
18224;SDS011;9237;48.590;8.854;2023-05-23T13:12:16;0.50;;;0.50;;
18224;SDS011;9237;48.590;8.854;2023-05-23T13:14:43;0.40;;;0.40;;
18224;SDS011;9237;48.590;8.854;2023-05-23T13:17:10;0.47;;;0.47;;
18224;SDS011;9237;48.590;8.854;2023-05-23T13:19:37;0.40;;;0.40;;
18224;SDS011;9237;48.590;8.854;2023-05-23T13:22:05;0.40;;;0.40;;
18224;SDS011;9237;48.590;8.854;2023-05-23T13:24:34;0.40;;;0.40;;
18224;SDS011;9237;48.590;8.854;2023-05-23T13:27:01;0.50;;;0.50;;
18224;SDS011;9237;48.590;8.854;2023-05-23T13:29:29;0.40;;;0.40;;
18224;SDS011;9237;48.590;8.854;2023-05-23T13:31:56;0.40;;;0.40;;
18224;SDS011;9237;48.590;8.854;2023-05-23T13:34:22;0.40;;;0.40;;
18224;SDS011;9237;48.590;8.854;2023-05-23T13:36:50;0.40;;;0.40;;
18224;SDS011;9237;48.590;8.854;2023-05-23T13:39:19;0.40;;;0.40;;
18224;SDS011;9237;48.590;8.854;2023-05-23T13:41:46;0.40;;;0.40;;
18224;SDS011;9237;48.590;8.854;2023-05-23T13:44:13;0.50;;;0.50;;
18224;SDS011;9237;48.590;8.854;2023-05-23T13:46:40;0.43;;;0.43;;
18224;SDS011;9237;48.590;8.854;2023-05-23T13:49:08;0.50;;;0.50;;
18224;SDS011;9237;48.590;8.854;2023-05-23T13:51:34;0.50;;;0.50;;
18224;SDS011;9237;48.590;8.854;2023-05-23T13:54:01;0.50;;;0.50;;
18224;SDS011;9237;48.590;8.854;2023-05-23T13:56:30;0.40;;;0.40;;
18224;SDS011;9237;48.590;8.854;2023-05-23T13:58:57;0.40;;;0.40;;
18224;SDS011;9237;48.590;8.854;2023-05-23T14:01:24;0.50;;;0.50;;
18224;SDS011;9237;48.590;8.854;2023-05-23T14:03:51;0.50;;;0.50;;
18224;SDS011;9237;48.590;8.854;2023-05-23T14:06:18;0.50;;;0.50;;
18224;SDS011;9237;48.590;8.854;2023-05-23T14:08:45;0.50;;;0.50;;
18224;SDS011;9237;48.590;8.854;2023-05-23T14:11:12;0.50;;;0.50;;
18224;SDS011;9237;48.590;8.854;2023-05-23T14:13:40;0.50;;;0.50;;
18224;SDS011;9237;48.590;8.854;2023-05-23T14:16:06;0.52;;;0.52;;
18224;SDS011;9237;48.590;8.854;2023-05-23T14:18:33;0.50;;;0.50;;
18224;SDS011;9237;48.590;8.854;2023-05-23T14:21:00;0.50;;;0.50;;
18224;SDS011;9237;48.590;8.854;2023-05-23T14:23:27;0.60;;;0.60;;
18224;SDS011;9237;48.590;8.854;2023-05-23T14:25:54;0.50;;;0.50;;
18224;SDS011;9237;48.590;8.854;2023-05-23T14:28:20;0.60;;;0.60;;
18224;SDS011;9237;48.590;8.854;2023-05-23T14:30:48;0.60;;;0.60;;
18224;SDS011;9237;48.590;8.854;2023-05-23T14:33:15;0.60;;;0.60;;
18224;SDS011;9237;48.590;8.854;2023-05-23T14:35:42;0.60;;;0.60;;
18224;SDS011;9237;48.590;8.854;2023-05-23T14:38:09;0.60;;;0.60;;
18224;SDS011;9237;48.590;8.854;2023-05-23T14:40:35;0.60;;;0.60;;
18224;SDS011;9237;48.590;8.854;2023-05-23T14:43:02;0.60;;;0.60;;
18224;SDS011;9237;48.590;8.854;2023-05-23T14:45:29;0.60;;;0.60;;
18224;SDS011;9237;48.590;8.854;2023-05-23T14:47:57;0.50;;;0.50;;
18224;SDS011;9237;48.590;8.854;2023-05-23T14:50:24;0.60;;;0.60;;
18224;SDS011;9237;48.590;8.854;2023-05-23T14:52:51;0.60;;;0.60;;
18224;SDS011;9237;48.590;8.854;2023-05-23T14:55:19;0.50;;;0.50;;
18224;SDS011;9237;48.590;8.854;2023-05-23T14:57:46;0.60;;;0.60;;
18224;SDS011;9237;48.590;8.854;2023-05-23T15:00:13;0.57;;;0.57;;
18224;SDS011;9237;48.590;8.854;2023-05-23T15:02:40;0.50;;;0.50;;
18224;SDS011;9237;48.590;8.854;2023-05-23T15:05:09;0.50;;;0.50;;
18224;SDS011;9237;48.590;8.854;2023-05-23T15:07:36;0.60;;;0.60;;
18224;SDS011;9237;48.590;8.854;2023-05-23T15:10:04;0.50;;;0.50;;